createdAt,value
2023-01-12T00:01:53.272Z,98613.00
2023-01-12T00:04:21.466Z,98617.00
2023-01-12T00:06:49.640Z,98616.00
2023-01-12T00:09:17.720Z,98606.00
2023-01-12T00:11:45.811Z,98609.00
2023-01-12T00:14:15.335Z,98615.00
2023-01-12T00:16:43.421Z,98618.00
2023-01-12T00:19:12.128Z,98621.00
2023-01-12T00:21:53.135Z,98621.00
2023-01-12T00:24:21.616Z,98616.00
2023-01-12T00:26:50.174Z,98630.00
2023-01-12T00:29:19.624Z,98617.00
2023-01-12T00:31:47.780Z,98627.00
2023-01-12T00:34:15.954Z,98635.00
2023-01-12T00:36:44.111Z,98614.00
2023-01-12T00:39:12.224Z,98614.00
2023-01-12T00:41:57.839Z,98610.00
2023-01-12T00:44:44.836Z,98607.00
2023-01-12T00:47:13.060Z,98600.00
2023-01-12T00:49:41.810Z,98599.00
2023-01-12T00:52:13.354Z,98602.00
2023-01-12T00:54:43.803Z,98607.00
2023-01-12T00:57:13.543Z,98610.00
2023-01-12T00:59:44.612Z,98614.00
2023-01-12T01:02:12.852Z,98607.00
2023-01-12T01:04:41.139Z,98610.00
2023-01-12T01:07:09.298Z,98606.00
2023-01-12T01:09:37.351Z,98614.00
2023-01-12T01:12:05.500Z,98607.00
2023-01-12T01:14:33.784Z,98614.00
2023-01-12T01:17:03.267Z,98610.00
2023-01-12T01:19:31.317Z,98614.00
2023-01-12T01:21:59.395Z,98617.00
2023-01-12T01:24:27.562Z,98608.00
2023-01-12T01:26:55.654Z,98600.00
2023-01-12T01:29:23.836Z,98599.00
2023-01-12T01:31:52.176Z,98608.00
2023-01-12T01:34:21.629Z,98609.00
2023-01-12T01:36:49.668Z,98603.00
2023-01-12T01:39:17.709Z,98611.00
2023-01-12T01:41:45.817Z,98605.00
2023-01-12T01:44:46.942Z,98594.00
2023-01-12T01:47:17.300Z,98589.00
2023-01-12T01:49:47.810Z,98594.00
2023-01-12T01:52:18.440Z,98584.00
2023-01-12T01:54:48.146Z,98593.00
2023-01-12T01:57:16.236Z,98599.00
2023-01-12T01:59:46.123Z,98598.00
2023-01-12T02:02:14.528Z,98595.00
2023-01-12T02:04:42.649Z,98601.00
2023-01-12T02:07:12.236Z,98592.00
2023-01-12T02:09:40.438Z,98598.00
2023-01-12T02:12:26.451Z,98583.00
2023-01-12T02:15:12.150Z,98583.00
2023-01-12T02:17:47.188Z,98570.00
2023-01-12T02:20:50.715Z,98583.00
2023-01-12T02:23:48.565Z,98573.00
2023-01-12T02:26:44.929Z,98569.00
2023-01-12T02:29:44.543Z,98565.00
2023-01-12T02:32:17.062Z,98561.00
2023-01-12T02:34:47.753Z,98544.00
2023-01-12T02:37:18.647Z,98555.00
2023-01-12T02:39:50.918Z,98550.00
2023-01-12T02:42:39.949Z,98551.00
2023-01-12T02:45:12.179Z,98545.00
2023-01-12T02:47:45.597Z,98548.00
2023-01-12T02:50:15.073Z,98538.00
2023-01-12T02:52:44.522Z,98536.00
2023-01-12T02:55:12.636Z,98539.00
2023-01-12T02:57:40.722Z,98528.00
2023-01-12T03:00:10.030Z,98535.00
2023-01-12T03:02:38.090Z,98535.00
2023-01-12T03:05:08.566Z,98530.00
2023-01-12T03:07:43.586Z,98528.00
2023-01-12T03:10:31.567Z,98543.00
2023-01-12T03:12:59.603Z,98543.00
2023-01-12T03:15:29.908Z,98544.00
2023-01-12T03:18:00.014Z,98545.00
2023-01-12T03:20:30.599Z,98531.00
2023-01-12T03:23:00.061Z,98537.00
2023-01-12T03:25:28.108Z,98537.00
2023-01-12T03:27:57.263Z,98526.00
2023-01-12T03:30:27.338Z,98517.00
2023-01-12T03:32:55.356Z,98522.00
2023-01-12T03:35:25.672Z,98518.00
2023-01-12T03:37:56.804Z,98516.00
2023-01-12T03:40:27.107Z,98507.00
2023-01-12T03:42:58.940Z,98501.00
2023-01-12T03:45:29.957Z,98492.00
2023-01-12T03:47:59.956Z,98500.00
2023-01-12T03:50:29.928Z,98503.00
2023-01-12T03:52:59.351Z,98493.00
2023-01-12T03:55:28.483Z,98493.00
2023-01-12T03:57:56.543Z,98504.00
2023-01-12T04:00:24.687Z,98499.00
2023-01-12T04:03:02.988Z,98506.00
2023-01-12T04:05:31.051Z,98492.00
2023-01-12T04:08:00.477Z,98493.00
2023-01-12T04:10:28.646Z,98496.00
2023-01-12T04:12:56.192Z,98491.00
2023-01-12T04:15:24.249Z,98500.00
2023-01-12T04:17:52.314Z,98495.00
2023-01-12T04:20:20.442Z,98490.00
2023-01-12T04:22:47.514Z,98497.00
2023-01-12T04:25:17.997Z,98489.00
2023-01-12T04:27:47.659Z,98491.00
2023-01-12T04:30:16.044Z,98480.00
2023-01-12T04:32:44.169Z,98483.00
2023-01-12T04:35:13.004Z,98483.00
2023-01-12T04:37:41.545Z,98488.00
2023-01-12T04:40:10.545Z,98493.00
2023-01-12T04:42:57.598Z,98491.00
2023-01-12T04:45:25.635Z,98484.00
2023-01-12T04:47:53.689Z,98491.00
2023-01-12T04:50:21.725Z,98493.00
2023-01-12T04:52:49.760Z,98488.00
2023-01-12T04:55:18.034Z,98489.00
2023-01-12T04:57:47.954Z,98472.00
2023-01-12T05:00:16.908Z,98476.00
2023-01-12T05:02:45.492Z,98477.00
2023-01-12T05:05:13.578Z,98479.00
2023-01-12T05:08:03.137Z,98471.00
2023-01-12T05:10:30.375Z,98481.00
2023-01-12T05:12:59.831Z,98470.00
2023-01-12T05:15:27.917Z,98469.00
2023-01-12T05:17:57.244Z,98468.00
2023-01-12T05:20:25.314Z,98462.00
2023-01-12T05:22:53.319Z,98461.00
2023-01-12T05:25:21.360Z,98456.00
2023-01-12T05:27:49.518Z,98442.00
2023-01-12T05:30:19.172Z,98450.00
2023-01-12T05:32:47.197Z,98441.00
2023-01-12T05:35:15.383Z,98444.00
2023-01-12T05:37:47.748Z,98445.00
2023-01-12T05:40:16.532Z,98439.00
2023-01-12T05:43:02.181Z,98445.00
2023-01-12T05:45:31.599Z,98443.00
2023-01-12T05:48:00.465Z,98446.00
2023-01-12T05:50:28.624Z,98444.00
2023-01-12T05:52:57.036Z,98451.00
2023-01-12T05:55:25.117Z,98450.00
2023-01-12T05:57:53.131Z,98446.00
2023-01-12T06:00:21.690Z,98441.00
2023-01-12T06:02:51.116Z,98440.00
2023-01-12T06:05:19.165Z,98445.00
2023-01-12T06:07:47.219Z,98433.00
2023-01-12T06:10:15.678Z,98427.00
2023-01-12T06:13:01.178Z,98419.00
2023-01-12T06:15:29.305Z,98420.00
2023-01-12T06:17:59.062Z,98418.00
2023-01-12T06:20:27.083Z,98417.00
2023-01-12T06:22:55.538Z,98416.00
2023-01-12T06:25:23.555Z,98418.00
2023-01-12T06:27:51.590Z,98413.00
2023-01-12T06:30:19.935Z,98405.00
2023-01-12T06:32:47.982Z,98411.00
2023-01-12T06:35:19.381Z,98414.00
2023-01-12T06:37:47.789Z,98409.00
2023-01-12T06:40:16.027Z,98405.00
2023-01-12T06:42:44.085Z,98405.00
2023-01-12T06:45:12.503Z,98398.00
2023-01-12T06:47:46.959Z,98402.00
2023-01-12T06:50:15.046Z,98389.00
2023-01-12T06:52:44.469Z,98385.00
2023-01-12T06:55:12.494Z,98388.00
2023-01-12T06:57:40.524Z,98396.00
2023-01-12T07:00:09.927Z,98401.00
2023-01-12T07:02:38.078Z,98410.00
2023-01-12T07:05:06.558Z,98419.00
2023-01-12T07:07:34.627Z,98396.00
2023-01-12T07:10:04.091Z,98386.00
2023-01-12T07:12:32.124Z,98389.00
2023-01-12T07:15:00.199Z,98385.00
2023-01-12T07:17:28.278Z,98387.00
2023-01-12T07:19:56.354Z,98393.00
2023-01-12T07:22:25.671Z,98388.00
2023-01-12T07:24:53.668Z,98383.00
2023-01-12T07:27:23.075Z,98387.00
2023-01-12T07:29:51.171Z,98386.00
2023-01-12T07:32:19.191Z,98370.00
2023-01-12T07:34:47.209Z,98383.00
2023-01-12T07:37:15.618Z,98371.00
2023-01-12T07:39:43.635Z,98364.00
2023-01-12T07:42:26.731Z,98364.00
2023-01-12T07:44:56.132Z,98367.00
2023-01-12T07:47:24.146Z,98368.00
2023-01-12T07:49:52.205Z,98364.00
2023-01-12T07:52:20.201Z,98363.00
2023-01-12T07:54:48.257Z,98356.00
2023-01-12T07:57:16.283Z,98346.00
2023-01-12T07:59:44.333Z,98365.00
2023-01-12T08:02:16.545Z,98361.00
2023-01-12T08:04:44.736Z,98356.00
2023-01-12T08:07:12.901Z,98354.00
2023-01-12T08:09:41.376Z,98375.00
2023-01-12T08:12:09.410Z,98365.00
2023-01-12T08:14:38.662Z,98369.00
2023-01-12T08:17:08.379Z,98378.00
2023-01-12T08:19:39.195Z,98369.00
2023-01-12T08:22:09.177Z,98362.00
2023-01-12T08:24:38.206Z,98371.00
2023-01-12T08:27:06.796Z,98362.00
2023-01-12T08:29:36.256Z,98360.00
2023-01-12T08:32:05.654Z,98366.00
2023-01-12T08:34:33.779Z,98349.00
2023-01-12T08:37:05.118Z,98351.00
2023-01-12T08:39:35.248Z,98345.00
2023-01-12T08:42:03.354Z,98355.00
2023-01-12T08:44:34.089Z,98347.00
2023-01-12T08:47:02.105Z,98350.00
2023-01-12T08:49:30.381Z,98341.00
2023-01-12T08:51:58.413Z,98352.00
2023-01-12T08:54:27.965Z,98352.00
2023-01-12T08:56:56.007Z,98350.00
2023-01-12T08:59:24.130Z,98349.00
2023-01-12T09:01:52.237Z,98349.00
2023-01-12T09:04:20.324Z,98343.00
2023-01-12T09:06:48.486Z,98350.00
2023-01-12T09:09:17.303Z,98335.00
2023-01-12T09:11:46.978Z,98340.00
2023-01-12T09:14:15.709Z,98340.00
2023-01-12T09:16:43.945Z,98324.00
2023-01-12T09:19:12.134Z,98334.00
2023-01-12T09:21:41.178Z,98349.00
2023-01-12T09:24:09.305Z,98346.00
2023-01-12T09:26:38.710Z,98353.00
2023-01-12T09:29:08.252Z,98347.00
2023-01-12T09:31:37.443Z,98354.00
2023-01-12T09:34:05.532Z,98358.00
2023-01-12T09:36:35.018Z,98354.00
2023-01-12T09:39:04.452Z,98357.00
2023-01-12T09:41:50.734Z,98351.00
2023-01-12T09:44:38.614Z,98334.00
2023-01-12T09:47:09.774Z,98352.00
2023-01-12T09:49:40.278Z,98349.00
2023-01-12T09:52:13.359Z,98348.00
2023-01-12T09:54:41.386Z,98346.00
2023-01-12T09:57:24.466Z,98339.00
2023-01-12T09:59:59.086Z,98355.00
2023-01-12T10:02:27.799Z,98336.00
2023-01-12T10:04:55.989Z,98332.00
2023-01-12T10:07:24.017Z,98330.00
2023-01-12T10:09:52.026Z,98331.00
2023-01-12T10:12:24.037Z,98337.00
2023-01-12T10:15:02.427Z,98342.00
2023-01-12T10:17:41.988Z,98351.00
2023-01-12T10:20:18.507Z,98348.00
2023-01-12T10:22:48.800Z,98336.00
2023-01-12T10:25:28.504Z,98344.00
2023-01-12T10:27:58.259Z,98334.00
2023-01-12T10:30:31.517Z,98318.00
2023-01-12T10:32:59.596Z,98340.00
2023-01-12T10:35:27.606Z,98321.00
2023-01-12T10:37:56.507Z,98324.00
2023-01-12T10:40:28.073Z,98312.00
2023-01-12T10:43:24.025Z,98302.00
2023-01-12T10:46:10.740Z,98300.00
2023-01-12T10:48:40.041Z,98305.00
2023-01-12T10:51:08.874Z,98301.00
2023-01-12T10:53:38.535Z,98298.00
2023-01-12T10:56:20.912Z,98304.00
2023-01-12T10:58:53.741Z,98288.00
2023-01-12T11:01:23.527Z,98294.00
2023-01-12T11:03:51.727Z,98281.00
2023-01-12T11:06:30.723Z,98284.00
2023-01-12T11:08:58.756Z,98284.00
2023-01-12T11:11:33.672Z,98284.00
2023-01-12T11:14:02.600Z,98290.00
2023-01-12T11:16:34.071Z,98271.00
2023-01-12T11:19:11.485Z,98268.00
2023-01-12T11:21:40.744Z,98266.00
2023-01-12T11:24:11.881Z,98265.00
2023-01-12T11:26:45.324Z,98264.00
2023-01-12T11:29:24.354Z,98261.00
2023-01-12T11:31:54.303Z,98248.00
2023-01-12T11:34:23.655Z,98264.00
2023-01-12T11:36:53.005Z,98254.00
2023-01-12T11:39:21.990Z,98256.00
2023-01-12T11:42:04.993Z,98245.00
2023-01-12T11:44:34.508Z,98244.00
2023-01-12T11:47:06.658Z,98244.00
2023-01-12T11:49:39.361Z,98240.00
2023-01-12T11:52:09.683Z,98232.00
2023-01-12T11:54:37.740Z,98240.00
2023-01-12T11:57:33.436Z,98228.00
2023-01-12T12:00:09.798Z,98226.00
2023-01-12T12:02:39.998Z,98220.00
2023-01-12T12:05:16.356Z,98225.00
2023-01-12T12:07:52.388Z,98215.00
2023-01-12T12:10:23.789Z,98215.00
2023-01-12T12:13:07.598Z,98206.00
2023-01-12T12:15:37.564Z,98212.00
2023-01-12T12:18:10.152Z,98207.00
2023-01-12T12:20:41.666Z,98209.00
2023-01-12T12:23:20.388Z,98217.00
2023-01-12T12:25:53.354Z,98217.00
2023-01-12T12:28:38.469Z,98207.00
2023-01-12T12:31:13.766Z,98203.00
2023-01-12T12:33:54.458Z,98214.00
2023-01-12T12:36:26.289Z,98212.00
2023-01-12T12:39:22.446Z,98201.00
2023-01-12T12:42:11.259Z,98201.00
2023-01-12T12:45:02.600Z,98199.00
2023-01-12T12:47:42.255Z,98194.00
2023-01-12T12:50:16.993Z,98179.00
2023-01-12T12:52:45.463Z,98189.00
2023-01-12T12:55:16.162Z,98178.00
2023-01-12T12:58:03.702Z,98183.00
2023-01-12T13:00:40.636Z,98180.00
2023-01-12T13:03:08.913Z,98178.00
2023-01-12T13:05:45.072Z,98180.00
2023-01-12T13:08:20.173Z,98190.00
2023-01-12T13:10:52.812Z,98185.00
2023-01-12T13:13:29.723Z,98184.00
2023-01-12T13:16:48.227Z,98184.00
2023-01-12T13:19:31.666Z,98187.00
2023-01-12T13:22:03.621Z,98180.00
2023-01-12T13:24:41.828Z,98187.00
2023-01-12T13:27:47.348Z,98174.00
2023-01-12T13:30:23.781Z,98178.00
2023-01-12T13:32:57.817Z,98178.00
2023-01-12T13:36:03.074Z,98181.00
2023-01-12T13:38:55.544Z,98187.00
2023-01-12T13:41:48.026Z,98170.00
2023-01-12T13:44:18.059Z,98171.00
2023-01-12T13:46:47.820Z,98184.00
2023-01-12T13:49:26.483Z,98182.00
2023-01-12T13:51:57.469Z,98174.00
2023-01-12T13:54:26.965Z,98185.00
2023-01-12T13:56:56.224Z,98172.00
2023-01-12T13:59:25.309Z,98172.00
2023-01-12T14:01:53.439Z,98178.00
2023-01-12T14:04:37.397Z,98175.00
2023-01-12T14:07:08.747Z,98172.00
2023-01-12T14:09:44.009Z,98168.00
2023-01-12T14:12:24.174Z,98184.00
2023-01-12T14:15:33.736Z,98175.00
2023-01-12T14:18:06.307Z,98174.00
2023-01-12T14:20:42.966Z,98184.00
2023-01-12T14:23:20.272Z,98181.00
2023-01-12T14:26:04.768Z,98180.00
2023-01-12T14:28:32.883Z,98189.00
2023-01-12T14:31:01.099Z,98188.00
2023-01-12T14:33:30.559Z,98183.00
2023-01-12T14:35:59.795Z,98180.00
2023-01-12T14:38:28.636Z,98180.00
2023-01-12T14:41:00.479Z,98178.00
2023-01-12T14:43:48.954Z,98187.00
2023-01-12T14:46:27.036Z,98183.00
2023-01-12T14:48:59.470Z,98171.00
2023-01-12T14:51:28.836Z,98162.00
2023-01-12T14:53:58.386Z,98181.00
2023-01-12T14:56:28.883Z,98176.00
2023-01-12T14:59:06.554Z,98169.00
2023-01-12T15:01:36.163Z,98165.00
2023-01-12T15:04:04.484Z,98175.00
2023-01-12T15:06:33.389Z,98173.00
2023-01-12T15:09:01.950Z,98173.00
2023-01-12T15:11:33.667Z,98177.00
2023-01-12T15:14:01.913Z,98188.00
2023-01-12T15:16:47.608Z,98187.00
2023-01-12T15:19:33.119Z,98185.00
2023-01-12T15:22:18.748Z,98178.00
2023-01-12T15:25:04.433Z,98177.00
2023-01-12T15:27:33.867Z,98182.00
2023-01-12T15:30:02.387Z,98181.00
2023-01-12T15:32:46.140Z,98180.00
2023-01-12T15:35:16.075Z,98184.00
2023-01-12T15:37:44.173Z,98183.00
2023-01-12T15:40:14.261Z,98172.00
2023-01-12T15:42:43.715Z,98184.00
2023-01-12T15:45:19.518Z,98176.00
2023-01-12T15:47:48.271Z,98166.00
2023-01-12T15:50:16.787Z,98174.00
2023-01-12T15:52:45.587Z,98173.00
2023-01-12T15:55:16.607Z,98174.00
2023-01-12T15:57:47.275Z,98182.00
2023-01-12T16:00:16.433Z,98170.00
2023-01-12T16:02:45.576Z,98177.00
2023-01-12T16:05:13.875Z,98185.00
2023-01-12T16:07:42.099Z,98178.00
2023-01-12T16:10:11.181Z,98175.00
2023-01-12T16:12:39.425Z,98175.00
2023-01-12T16:15:14.327Z,98178.00
2023-01-12T16:17:43.293Z,98182.00
2023-01-12T16:20:12.388Z,98179.00
2023-01-12T16:22:40.585Z,98167.00
2023-01-12T16:25:09.346Z,98183.00
2023-01-12T16:27:38.181Z,98171.00
2023-01-12T16:30:08.902Z,98163.00
2023-01-12T16:32:37.096Z,98168.00
2023-01-12T16:35:05.677Z,98163.00
2023-01-12T16:37:35.359Z,98156.00
2023-01-12T16:40:03.481Z,98165.00
2023-01-12T16:42:31.524Z,98156.00
2023-01-12T16:44:59.569Z,98161.00
2023-01-12T16:47:29.006Z,98169.00
2023-01-12T16:49:57.110Z,98171.00
2023-01-12T16:52:25.217Z,98180.00
2023-01-12T16:54:53.314Z,98170.00
2023-01-12T16:57:21.383Z,98181.00
2023-01-12T16:59:51.532Z,98179.00
2023-01-12T17:02:20.096Z,98186.00
2023-01-12T17:04:52.195Z,98173.00
2023-01-12T17:07:20.553Z,98173.00
2023-01-12T17:09:48.609Z,98173.00
2023-01-12T17:12:16.825Z,98172.00
2023-01-12T17:14:45.404Z,98173.00
2023-01-12T17:17:13.725Z,98157.00
2023-01-12T17:19:43.521Z,98160.00
2023-01-12T17:22:13.166Z,98163.00
2023-01-12T17:24:41.946Z,98167.00
2023-01-12T17:27:10.641Z,98169.00
2023-01-12T17:29:38.971Z,98165.00
2023-01-12T17:32:08.201Z,98165.00
2023-01-12T17:34:37.729Z,98161.00
2023-01-12T17:37:08.258Z,98155.00
2023-01-12T17:39:39.901Z,98154.00
2023-01-12T17:42:25.605Z,98154.00
2023-01-12T17:44:53.731Z,98156.00
2023-01-12T17:47:21.824Z,98139.00
2023-01-12T17:49:49.899Z,98156.00
2023-01-12T17:52:18.044Z,98151.00
2023-01-12T17:54:50.527Z,98163.00
2023-01-12T17:57:18.644Z,98152.00
2023-01-12T17:59:46.910Z,98136.00
2023-01-12T18:02:15.834Z,98144.00
2023-01-12T18:04:44.126Z,98147.00
2023-01-12T18:07:12.172Z,98144.00
2023-01-12T18:09:41.995Z,98143.00
2023-01-12T18:12:12.411Z,98147.00
2023-01-12T18:14:40.785Z,98146.00
2023-01-12T18:17:10.943Z,98147.00
2023-01-12T18:19:41.428Z,98144.00
2023-01-12T18:22:10.901Z,98144.00
2023-01-12T18:24:39.351Z,98130.00
2023-01-12T18:27:07.372Z,98130.00
2023-01-12T18:29:37.116Z,98133.00
2023-01-12T18:32:05.600Z,98132.00
2023-01-12T18:34:33.842Z,98137.00
2023-01-12T18:37:01.997Z,98146.00
2023-01-12T18:39:30.121Z,98151.00
2023-01-12T18:42:15.657Z,98147.00
2023-01-12T18:44:45.557Z,98142.00
2023-01-12T18:47:32.163Z,98146.00
2023-01-12T18:50:20.415Z,98135.00
2023-01-12T18:53:05.834Z,98136.00
2023-01-12T18:55:36.170Z,98145.00
2023-01-12T18:58:04.320Z,98139.00
2023-01-12T19:00:33.846Z,98135.00
2023-01-12T19:03:01.908Z,98129.00
2023-01-12T19:05:36.508Z,98128.00
2023-01-12T19:08:25.550Z,98122.00
2023-01-12T19:10:53.728Z,98121.00
2023-01-12T19:13:39.491Z,98117.00
2023-01-12T19:16:29.134Z,98103.00
2023-01-12T19:18:57.196Z,98113.00
2023-01-12T19:21:43.537Z,98106.00
2023-01-12T19:24:34.896Z,98108.00
2023-01-12T19:27:21.659Z,98112.00
2023-01-12T19:29:50.545Z,98117.00
2023-01-12T19:32:19.960Z,98114.00
2023-01-12T19:34:49.222Z,98105.00
2023-01-12T19:37:18.570Z,98097.00
2023-01-12T19:40:00.533Z,98096.00
2023-01-12T19:42:46.761Z,98099.00
2023-01-12T19:45:15.097Z,98092.00
2023-01-12T19:47:45.140Z,98087.00
2023-01-12T19:50:15.322Z,98095.00
2023-01-12T19:52:43.845Z,98097.00
2023-01-12T19:55:15.168Z,98087.00
2023-01-12T19:57:44.112Z,98091.00
2023-01-12T20:00:14.977Z,98085.00
2023-01-12T20:02:44.565Z,98088.00
2023-01-12T20:05:13.692Z,98081.00
2023-01-12T20:07:48.121Z,98080.00
2023-01-12T20:10:16.465Z,98086.00
2023-01-12T20:12:45.504Z,98080.00
2023-01-12T20:15:13.620Z,98074.00
2023-01-12T20:17:41.802Z,98076.00
2023-01-12T20:20:12.660Z,98071.00
2023-01-12T20:22:43.493Z,98081.00
2023-01-12T20:25:11.732Z,98066.00
2023-01-12T20:27:40.220Z,98076.00
2023-01-12T20:30:10.736Z,98060.00
2023-01-12T20:32:42.622Z,98060.00
2023-01-12T20:35:14.343Z,98068.00
2023-01-12T20:37:42.400Z,98065.00
2023-01-12T20:40:11.670Z,98058.00
2023-01-12T20:42:39.843Z,98060.00
2023-01-12T20:45:08.858Z,98055.00
2023-01-12T20:47:37.093Z,98048.00
2023-01-12T20:50:07.515Z,98055.00
2023-01-12T20:52:36.969Z,98052.00
2023-01-12T20:55:05.528Z,98055.00
2023-01-12T20:57:34.753Z,98056.00
2023-01-12T21:00:02.854Z,98046.00
2023-01-12T21:02:31.035Z,98057.00
2023-01-12T21:04:59.122Z,98047.00
2023-01-12T21:07:29.437Z,98036.00
2023-01-12T21:09:58.886Z,98035.00
2023-01-12T21:12:27.799Z,98036.00
2023-01-12T21:14:55.968Z,98031.00
2023-01-12T21:17:24.143Z,98028.00
2023-01-12T21:19:52.411Z,98030.00
2023-01-12T21:22:20.965Z,98029.00
2023-01-12T21:24:50.379Z,98031.00
2023-01-12T21:27:19.791Z,98027.00
2023-01-12T21:29:47.892Z,98028.00
2023-01-12T21:32:15.955Z,98037.00
2023-01-12T21:34:43.945Z,98028.00
2023-01-12T21:37:12.698Z,98034.00
2023-01-12T21:39:40.735Z,98032.00
2023-01-12T21:42:26.225Z,98023.00
2023-01-12T21:44:55.621Z,98024.00
2023-01-12T21:47:23.660Z,98034.00
2023-01-12T21:49:51.660Z,98036.00
2023-01-12T21:52:19.843Z,98033.00
2023-01-12T21:54:47.861Z,98036.00
2023-01-12T21:57:15.920Z,98042.00
2023-01-12T21:59:43.959Z,98034.00
2023-01-12T22:02:14.241Z,98036.00
2023-01-12T22:04:42.533Z,98039.00
2023-01-12T22:07:10.554Z,98028.00
2023-01-12T22:09:39.384Z,98034.00
2023-01-12T22:12:07.972Z,98024.00
2023-01-12T22:14:35.995Z,98028.00
2023-01-12T22:17:04.064Z,98014.00
2023-01-12T22:19:33.456Z,98025.00
2023-01-12T22:22:01.799Z,98016.00
2023-01-12T22:24:29.906Z,98012.00
2023-01-12T22:26:57.938Z,98009.00
2023-01-12T22:29:26.009Z,98015.00
2023-01-12T22:31:54.044Z,98022.00
2023-01-12T22:34:22.569Z,98004.00
2023-01-12T22:36:52.073Z,98015.00
2023-01-12T22:39:20.142Z,97999.00
2023-01-12T22:41:50.591Z,98010.00
2023-01-12T22:44:18.817Z,98006.00
2023-01-12T22:46:46.858Z,98004.00
2023-01-12T22:49:14.925Z,97999.00
2023-01-12T22:51:42.975Z,97998.00
2023-01-12T22:54:12.398Z,98005.00
2023-01-12T22:56:40.427Z,97995.00
2023-01-12T22:59:09.865Z,97998.00
2023-01-12T23:01:38.147Z,97985.00
2023-01-12T23:04:06.333Z,97991.00
2023-01-12T23:06:37.420Z,97986.00
2023-01-12T23:09:05.614Z,97986.00
2023-01-12T23:11:35.281Z,97985.00
2023-01-12T23:14:03.495Z,97974.00
2023-01-12T23:16:31.666Z,97978.00
2023-01-12T23:19:01.755Z,97971.00
2023-01-12T23:21:29.932Z,97958.00
2023-01-12T23:24:00.751Z,97956.00
2023-01-12T23:26:31.307Z,97975.00
2023-01-12T23:29:03.268Z,97970.00
2023-01-12T23:31:32.700Z,97968.00
2023-01-12T23:34:01.478Z,97969.00
2023-01-12T23:36:30.252Z,97958.00
2023-01-12T23:38:59.347Z,97970.00
2023-01-12T23:41:28.298Z,97972.00
2023-01-12T23:43:57.708Z,97960.00
2023-01-12T23:46:27.600Z,97961.00
2023-01-12T23:48:56.858Z,97938.00
2023-01-12T23:51:25.801Z,97952.00
2023-01-12T23:53:54.000Z,97955.00
2023-01-12T23:56:23.753Z,97942.00
2023-01-12T23:58:51.998Z,97939.00
